Weerstation
Sluispark-LeuvenLeuven-Sluispark



Nabijgelegen vliegvelden - METAR rapporten

   
EBBR - Wilsele bij Leuven
Gewijzigd: 26-01-2020 06:20
Helder    Wind: Zuiden 9.3 km/h
Helder
Wind: Wind: Zuiden 9.3 km/h
Temperatuur: 4°C
Voelt als: 2°C
Dauwpunt: 3°C
Vochtigheid: 93%
Barometer: 1015 hPa
Zicht: meer dan 10 km
Bewolking: Helder
EBBR 260520Z 19005KT CAVOK 04/03 Q1015 NOSIG
EBAW - Antwerp
Gewijzigd: 26-01-2020 06:20
Helder    Wind: varieert 3.7 km/h
Helder
Wind: Wind: varieert 3.7 km/h
Temperatuur: 2°C
Dauwpunt: 2°C
Vochtigheid: 100%
Barometer: 1016 hPa
Bewolking: Helder
Zicht: 5 km
Bewolking: Helder
EBAW 260520Z AUTO VRB02KT 5000 // NCD 02/02 Q1016
EBLG - Li├Ęge
Gewijzigd: 26-01-2020 06:20
Helder    Wind: Zuiden 14.8 km/h
Helder
Wind: Wind: Zuiden 14.8 km/h
Temperatuur: 6°C
Voelt als: 3°C
Dauwpunt: 3°C
Vochtigheid: 81%
Barometer: 1016 hPa
Zicht: meer dan 10 km
Bewolking: Helder
EBLG 260520Z 17008KT CAVOK 06/03 Q1016 NOSIG
EBCV - Mons/Bergen
Gewijzigd: 25-01-2020 12:25
Verouderd
Mist, Bewolking    Wind: Zuiden 7.4 km/h
Mist, Bewolking
Wind: Wind: Zuiden 7.4 km/h
Temperatuur: 2°C
Voelt als: 0°C
Dauwpunt: 2°C
Vochtigheid: 100%
Barometer: 1022 hPa
Bewolking: Bewolking
Zicht: 0 km
Bewolking: Bewolking 61 m
EBCV 251125Z AUTO 18004KT 0400 FG OVC002/// 02/02 Q1022 RED
EHBK - Maastricht
Gewijzigd: 26-01-2020 06:25
Gedeeltelijk bewolkt    Wind: varieert 3.7 km/h
Gedeeltelijk bewolkt
Wind: Wind: varieert 3.7 km/h
Temperatuur: 2°C
Dauwpunt: 2°C
Vochtigheid: 100%
Barometer: 1016 hPa
Bewolking: Gedeeltelijk bewolkt
Zicht: 7 km
Bewolking: Gedeeltelijk bewolkt
EHBK 260525Z AUTO VRB02KT 7000 NSC 02/02 Q1016 NOSIG
ELLX - Luxemburg
Gewijzigd: 26-01-2020 06:20
Mist, Bewolking    Wind: varieert 3.7 km/h
Mist, Bewolking
Wind: Wind: varieert 3.7 km/h
Temperatuur: 0°C
Dauwpunt: 0°C
Vochtigheid: 100%
Barometer: 1017 hPa
Bewolking: Bewolking
Zicht: 0 km
Bewolking: Bewolking 61 m
ELLX 260520Z VRB02KT 0100 R24/0350N FG VV002 00/00 Q1017 NOSIG
EBOS - Oostende
Gewijzigd: 26-01-2020 06:20
Nevel, Gedeeltelijk bewolkt    Wind: Zuiden 7.4 km/h
Nevel, Gedeeltelijk bewolkt
Wind: Wind: Zuiden 7.4 km/h
Temperatuur: 2°C
Voelt als: 0°C
Dauwpunt: 1°C
Vochtigheid: 93%
Barometer: 1015 hPa
Bewolking: Gedeeltelijk bewolkt
Zicht: 2 km
Bewolking: Gedeeltelijk bewolkt
EBOS 260520Z 18004KT 2100 BR NSC 02/01 Q1015 TEMPO 1200 BR BKN003
  

Script ontwikkeld door  Saratoga-weather.org Aangepast voor de template door  Weerstation Leuven

U vindt ons ook hier:

UK Metoffice

WeatherCloud

European Weather Network

Weather Underground

Benelux Weather Network

AWEKAS

WeatherlinkIP

Het Weer Aktueel

Apparatuur in gebruik:

Weer-station
Davis VP2 weatherstation

Weer-programma
Meteobridge

Weer-computer
D-Link DIR-505

Webleverancier
Robohost

Davis VP2 weatherstation

Meteobridge

D-Link DIR-505

Robohost